Time;durP1;ratioP1;P1;durP2;ratioP2;P2;SDS_P1;SDS_P2;PMS_P1;PMS_P2;Temp;Humidity;BMP_temperature;BMP_pressure;BME280_temperature;BME280_humidity;BME280_pressure;Samples;Min_cycle;Max_cycle;Signal;HPM_P1;HPM_P2
2021/06/21 00:01:56;;;;;;;5.93;1.17;;;;;;;13.66;49.54;100986.63;5068052;28;20036;-70
2021/06/21 00:04:22;;;;;;;3.08;0.70;;;;;;;13.50;49.38;100981.25;5066773;28;20048;-69
2021/06/21 00:06:47;;;;;;;6.75;1.23;;;;;;;13.44;50.31;100964.03;5082002;28;20028;-70
2021/06/21 00:09:13;;;;;;;3.95;1.27;;;;;;;13.04;51.02;100952.06;5068024;28;20143;-69
2021/06/21 00:11:39;;;;;;;2.08;1.00;;;;;;;13.36;50.30;100955.72;5066213;28;20040;-69
2021/06/21 00:14:04;;;;;;;5.60;1.10;;;;;;;12.97;51.10;100946.25;5068891;28;20087;-69
2021/06/21 00:16:30;;;;;;;4.07;1.30;;;;;;;13.37;50.00;100946.06;5066350;28;20551;-70
2021/06/21 00:18:56;;;;;;;1.60;0.65;;;;;;;12.95;51.07;100940.22;5066663;28;20556;-69
2021/06/21 00:21:21;;;;;;;1.50;0.65;;;;;;;12.62;51.73;100932.19;5066063;28;20159;-69
2021/06/21 00:23:47;;;;;;;2.10;1.10;;;;;;;13.21;50.16;100924.97;5068169;28;20068;-70
2021/06/21 00:26:13;;;;;;;1.33;0.68;;;;;;;12.91;50.32;100930.81;5066040;28;20934;-69
2021/06/21 00:28:38;;;;;;;3.75;0.57;;;;;;;12.85;50.22;100928.50;5051816;28;20032;-70
2021/06/21 00:31:04;;;;;;;1.52;0.38;;;;;;;12.88;50.09;100937.06;5065597;28;20067;-69
2021/06/21 00:33:29;;;;;;;8.18;1.08;;;;;;;12.92;50.38;100958.75;5068941;28;20034;-69
2021/06/21 00:35:55;;;;;;;2.15;0.60;;;;;;;13.18;49.50;100954.00;5067905;28;20066;-70
2021/06/21 00:38:21;;;;;;;3.67;0.68;;;;;;;13.05;50.03;100952.00;5065542;28;20029;-70
2021/06/21 00:40:47;;;;;;;3.70;0.60;;;;;;;13.14;50.00;100955.06;5064476;28;20487;-70
2021/06/21 00:43:12;;;;;;;1.73;0.73;;;;;;;13.06;49.76;100947.59;5065859;28;20355;-69
2021/06/21 00:45:38;;;;;;;3.25;0.43;;;;;;;13.05;50.18;100952.00;5069594;28;20041;-69
2021/06/21 00:48:04;;;;;;;3.42;0.80;;;;;;;12.97;50.45;100948.03;5065927;28;20036;-70
2021/06/21 00:50:30;;;;;;;1.75;0.75;;;;;;;12.82;50.72;100947.84;5066353;28;20036;-70
2021/06/21 00:52:58;;;;;;;4.05;0.77;;;;;;;12.78;50.82;100946.31;5066519;28;20508;-69
2021/06/21 00:55:25;;;;;;;1.52;0.63;;;;;;;12.73;50.77;100950.06;5048593;28;20428;-70
2021/06/21 00:57:51;;;;;;;4.18;0.70;;;;;;;13.05;50.11;100943.28;5066583;28;20036;-70
2021/06/21 01:00:20;;;;;;;1.17;0.52;;;;;;;13.08;49.98;100956.22;5065308;28;20036;-70
2021/06/21 01:02:46;;;;;;;5.22;0.50;;;;;;;13.10;50.23;100947.34;5065563;28;20470;-70
2021/06/21 01:05:19;;;;;;;2.25;0.68;;;;;;;12.98;50.59;100954.97;5064479;28;20131;-70
2021/06/21 01:07:45;;;;;;;2.65;0.50;;;;;;;13.32;49.79;100960.25;5067643;28;20047;-69
2021/06/21 01:10:13;;;;;;;3.08;0.77;;;;;;;13.36;49.16;100960.97;5081053;28;20151;-69
2021/06/21 01:12:47;;;;;;;1.50;0.70;;;;;;;12.88;50.64;100959.81;5068441;28;20093;-71
2021/06/21 01:15:20;;;;;;;5.57;1.00;;;;;;;13.35;49.64;100961.88;5047609;28;20037;-70
2021/06/21 01:18:04;;;;;;;1.67;0.80;;;;;;;13.25;49.86;100956.25;5070891;28;20040;-69
2021/06/21 01:20:44;;;;;;;3.97;1.15;;;;;;;13.45;49.76;100962.25;5065403;28;20033;-69
2021/06/21 01:23:35;;;;;;;5.82;0.88;;;;;;;13.59;49.48;100961.59;5064504;28;20093;-70
2021/06/21 01:26:16;;;;;;;1.38;0.50;;;;;;;13.64;49.22;100947.28;5066736;28;20063;-70
2021/06/21 01:29:00;;;;;;;4.15;1.05;;;;;;;13.25;50.50;100939.63;5054099;28;20066;-69
2021/06/21 01:31:46;;;;;;;1.95;0.50;;;;;;;13.29;50.37;100935.94;5058663;28;20071;-70
2021/06/21 01:34:14;;;;;;;3.33;1.08;;;;;;;13.26;50.42;100938.72;5056265;28;20043;-70
2021/06/21 01:36:41;;;;;;;2.85;0.40;;;;;;;13.22;50.66;100937.16;5056538;28;20025;-70
2021/06/21 01:39:07;;;;;;;1.10;0.60;;;;;;;13.23;50.22;100925.75;5068625;28;20063;-70
2021/06/21 01:41:39;;;;;;;1.67;0.40;;;;;;;13.13;50.95;100914.84;5083734;22;20052;-67
2021/06/21 01:44:07;;;;;;;1.83;0.65;;;;;;;13.33;50.27;100911.22;5048482;28;20072;-64
2021/06/21 01:46:34;;;;;;;4.07;1.25;;;;;;;13.35;50.12;100913.78;5045818;28;20064;-67
2021/06/21 01:49:08;;;;;;;3.75;0.90;;;;;;;13.17;50.44;100911.16;5034982;28;20039;-66
2021/06/21 01:51:36;;;;;;;1.27;0.83;;;;;;;13.19;50.31;100908.47;5043122;28;20036;-67
2021/06/21 01:54:03;;;;;;;2.25;0.85;;;;;;;13.42;50.49;100908.13;5033608;28;20024;-65
2021/06/21 01:56:34;;;;;;;6.10;1.30;;;;;;;13.32;50.34;100904.28;5045824;28;20028;-65
2021/06/21 01:59:06;;;;;;;3.63;0.75;;;;;;;13.31;50.73;100908.66;5045702;28;20354;-67
2021/06/21 02:01:34;;;;;;;6.63;0.80;;;;;;;12.97;51.62;100904.28;5044699;28;20024;-66
2021/06/21 02:04:04;;;;;;;1.30;0.80;;;;;;;13.39;50.33;100918.78;5016434;28;20029;-66
2021/06/21 02:06:32;;;;;;;3.83;0.82;;;;;;;13.14;51.72;100920.94;5045577;28;20115;-66
2021/06/21 02:09:00;;;;;;;8.88;0.98;;;;;;;12.93;52.10;100918.47;5014491;28;20036;-66
2021/06/21 02:11:27;;;;;;;6.50;1.27;;;;;;;13.21;51.23;100917.13;5048114;28;20035;-66
2021/06/21 02:13:53;;;;;;;6.85;1.63;;;;;;;13.09;51.24;100916.81;5046412;28;20086;-66
2021/06/21 02:16:21;;;;;;;4.53;0.65;;;;;;;13.28;50.52;100929.00;5047946;28;20035;-67
2021/06/21 02:18:49;;;;;;;6.68;1.45;;;;;;;13.32;50.58;100926.13;5012893;28;20033;-66
2021/06/21 02:21:17;;;;;;;3.10;1.25;;;;;;;13.15;50.84;100933.16;5016183;28;20045;-66
2021/06/21 02:23:43;;;;;;;5.90;1.85;;;;;;;13.54;49.66;100938.19;5048032;28;20413;-66
2021/06/21 02:26:09;;;;;;;2.72;1.08;;;;;;;13.18;50.58;100949.56;5044862;28;20040;-71
2021/06/21 02:28:36;;;;;;;6.05;1.17;;;;;;;13.18;50.85;100939.09;5025236;28;20577;-66
2021/06/21 02:31:05;;;;;;;4.30;0.70;;;;;;;13.41;49.90;100945.81;5017805;28;20036;-67
2021/06/21 02:33:31;;;;;;;9.00;0.70;;;;;;;13.18;50.48;100943.50;5043677;28;20127;-66
2021/06/21 02:35:56;;;;;;;5.50;0.80;;;;;;;13.36;50.03;100944.34;5048652;28;20071;-66
2021/06/21 02:38:22;;;;;;;2.90;0.93;;;;;;;13.41;50.33;100943.19;5011014;28;20112;-65
2021/06/21 02:40:48;;;;;;;1.95;0.70;;;;;;;13.10;50.62;100944.72;5046154;28;20732;-65
2021/06/21 02:43:15;;;;;;;5.47;1.13;;;;;;;13.19;50.50;100945.22;5030349;28;20044;-66
2021/06/21 02:45:40;;;;;;;5.38;1.48;;;;;;;12.96;51.42;100931.44;5047097;28;20107;-69
2021/06/21 02:48:08;;;;;;;2.90;0.82;;;;;;;13.04;51.13;100934.53;5016379;28;20543;-67
2021/06/21 02:50:37;;;;;;;1.80;0.60;;;;;;;13.30;50.47;100929.75;5045936;28;20036;-69
2021/06/21 02:53:32;;;;;;;1.48;0.50;;;;;;;13.32;50.39;100928.75;5043847;28;20750;-69
2021/06/21 02:56:16;;;;;;;3.38;0.63;;;;;;;13.04;50.99;100924.03;5026849;28;20043;-68
2021/06/21 02:58:44;;;;;;;1.38;0.40;;;;;;;13.32;50.75;100920.88;5029558;28;20037;-69
2021/06/21 03:01:13;;;;;;;3.75;0.80;;;;;;;13.21;50.88;100914.50;5031606;28;20063;-69
2021/06/21 03:03:42;;;;;;;5.43;0.98;;;;;;;13.45;50.67;100897.47;5027986;28;20082;-69
2021/06/21 03:06:08;;;;;;;4.00;0.82;;;;;;;13.15;51.31;100893.78;5049009;28;20531;-69
2021/06/21 03:08:36;;;;;;;2.53;0.77;;;;;;;13.15;51.58;100891.16;5034698;28;20142;-69
2021/06/21 03:11:03;;;;;;;5.60;0.70;;;;;;;12.96;51.88;100892.09;5050353;28;20091;-69
2021/06/21 03:13:29;;;;;;;3.47;0.90;;;;;;;13.17;51.27;100884.06;5030787;28;20434;-65
2021/06/21 03:15:58;;;;;;;2.15;0.85;;;;;;;13.24;51.00;100877.56;5033661;28;20033;-66
2021/06/21 03:18:25;;;;;;;1.73;0.63;;;;;;;12.94;51.75;100869.47;5037684;28;20547;-67
2021/06/21 03:20:53;;;;;;;5.65;0.88;;;;;;;12.96;52.00;100865.00;5051536;28;20509;-66
2021/06/21 03:23:23;;;;;;;6.72;1.13;;;;;;;12.96;51.67;100865.88;5010807;28;20037;-65
2021/06/21 03:25:54;;;;;;;6.07;1.05;;;;;;;13.32;50.66;100872.78;5048815;28;20477;-67
2021/06/21 03:28:22;;;;;;;4.93;0.70;;;;;;;12.93;51.58;100868.63;5047349;28;20053;-66
2021/06/21 03:31:02;;;;;;;5.25;0.60;;;;;;;13.10;50.87;100867.78;5046740;28;20037;-66
2021/06/21 03:33:29;;;;;;;5.70;0.88;;;;;;;12.96;51.47;100865.88;5046194;28;20120;-66
2021/06/21 03:35:55;;;;;;;1.30;0.40;;;;;;;12.65;52.19;100862.09;5016116;28;20036;-68
2021/06/21 03:38:23;;;;;;;6.78;0.85;;;;;;;12.88;51.52;100861.00;5048444;28;20024;-68
2021/06/21 03:40:50;;;;;;;3.03;0.80;;;;;;;12.74;52.23;100855.59;5049652;28;20040;-68
2021/06/21 03:43:21;;;;;;;7.90;1.40;;;;;;;13.03;51.52;100862.00;5048243;28;20032;-71
2021/06/21 03:45:49;;;;;;;1.92;0.68;;;;;;;12.90;52.01;100856.50;5051287;28;20128;-71
2021/06/21 03:48:14;;;;;;;3.20;0.75;;;;;;;13.06;51.84;100853.13;5017958;28;20033;-72
2021/06/21 03:50:40;;;;;;;7.78;0.90;;;;;;;13.06;51.64;100851.34;5051074;28;20040;-71
2021/06/21 03:53:09;;;;;;;5.20;0.77;;;;;;;13.06;51.74;100856.59;5033246;28;20039;-72
2021/06/21 03:55:35;;;;;;;3.65;1.10;;;;;;;12.96;52.08;100860.63;5032184;22;20037;-69
2021/06/21 03:58:01;;;;;;;4.57;1.00;;;;;;;13.08;51.75;100854.75;5080710;28;20043;-69
2021/06/21 04:00:28;;;;;;;3.88;0.73;;;;;;;13.22;51.86;100861.91;5067396;28;20066;-69
2021/06/21 04:02:56;;;;;;;6.25;0.68;;;;;;;12.91;52.69;100862.59;5066530;28;20040;-69
2021/06/21 04:05:23;;;;;;;1.92;0.85;;;;;;;12.96;52.52;100855.38;5048808;28;20028;-69
2021/06/21 04:07:49;;;;;;;6.18;0.68;;;;;;;13.15;51.67;100854.44;5050671;28;20435;-69
2021/06/21 04:10:18;;;;;;;3.75;0.75;;;;;;;12.84;52.72;100853.34;5067829;28;20485;-69
2021/06/21 04:12:48;;;;;;;2.95;0.80;;;;;;;13.16;51.51;100867.47;5067544;28;20035;-70
2021/06/21 04:15:16;;;;;;;6.43;0.90;;;;;;;13.19;51.34;100856.81;5066226;28;20036;-70
2021/06/21 04:17:42;;;;;;;5.45;1.20;;;;;;;13.18;51.45;100860.34;5066464;28;20382;-70
2021/06/21 04:20:10;;;;;;;6.95;1.60;;;;;;;13.10;51.56;100858.13;5066177;28;20092;-69
2021/06/21 04:22:36;;;;;;;13.25;5.35;;;;;;;13.05;51.78;100861.94;5066997;28;20028;-69
2021/06/21 04:25:02;;;;;;;3.00;1.08;;;;;;;12.83;52.26;100859.53;5082448;28;20031;-68
2021/06/21 04:27:28;;;;;;;6.97;0.82;;;;;;;13.15;51.41;100865.78;5085612;28;20484;-69
2021/06/21 04:29:53;;;;;;;13.90;1.20;;;;;;;12.68;52.32;100869.81;5058736;28;20568;-69
2021/06/21 04:32:19;;;;;;;6.53;0.98;;;;;;;13.01;51.27;100871.72;5065502;28;20050;-69
2021/06/21 04:34:44;;;;;;;6.60;0.90;;;;;;;12.86;52.38;100864.63;5048407;28;20039;-69
2021/06/21 04:37:10;;;;;;;3.20;1.25;;;;;;;13.07;52.43;100870.53;5084804;28;20064;-69
2021/06/21 04:39:35;;;;;;;4.43;1.83;;;;;;;12.82;53.33;100868.31;5084008;28;20120;-69
2021/06/21 04:42:01;;;;;;;9.45;2.25;;;;;;;12.83;53.50;100864.78;5048587;28;20428;-69
2021/06/21 04:44:26;;;;;;;5.05;1.85;;;;;;;12.57;54.49;100866.84;5085239;28;20118;-69
2021/06/21 04:46:52;;;;;;;6.43;2.38;;;;;;;12.93;53.55;100867.78;5083742;28;20055;-69
2021/06/21 04:49:17;;;;;;;13.73;2.95;;;;;;;12.63;54.83;100863.94;5085502;28;20065;-69
2021/06/21 04:51:47;;;;;;;6.70;2.03;;;;;;;12.77;54.57;100865.06;5085569;28;20042;-69
2021/06/21 04:54:13;;;;;;;7.97;1.75;;;;;;;12.05;56.80;100862.31;5087740;28;20085;-69
2021/06/21 04:56:39;;;;;;;5.53;1.15;;;;;;;12.42;55.76;100867.59;5066093;28;20727;-69
2021/06/21 04:59:05;;;;;;;7.72;1.58;;;;;;;12.22;56.64;100863.28;5050671;28;20628;-69
2021/06/21 05:01:31;;;;;;;8.35;2.00;;;;;;;12.17;57.00;100870.53;5065280;28;20427;-69
2021/06/21 05:04:01;;;;;;;6.20;1.20;;;;;;;12.01;57.34;100862.53;5066294;28;20027;-70
2021/06/21 05:06:27;;;;;;;3.75;1.25;;;;;;;12.01;57.11;100862.53;5083175;28;20043;-69
2021/06/21 05:08:53;;;;;;;5.15;1.38;;;;;;;12.10;57.40;100859.50;5085745;28;20036;-69
2021/06/21 05:11:19;;;;;;;3.28;1.17;;;;;;;11.56;58.67;100853.22;5048759;28;20071;-69
2021/06/21 05:13:44;;;;;;;4.82;1.50;;;;;;;11.69;58.37;100854.34;5049847;28;20654;-68
2021/06/21 05:16:10;;;;;;;7.63;2.25;;;;;;;11.43;59.21;100845.88;5083765;28;20031;-68
2021/06/21 05:18:37;;;;;;;3.13;1.35;;;;;;;11.55;58.80;100848.88;5067097;28;20400;-69
2021/06/21 05:21:03;;;;;;;5.20;1.13;;;;;;;11.42;59.02;100841.59;5066772;28;20158;-69
2021/06/21 05:23:29;;;;;;;4.82;1.15;;;;;;;11.58;58.62;100846.13;5048433;28;20118;-69
2021/06/21 05:25:54;;;;;;;6.60;1.35;;;;;;;11.49;58.88;100846.56;5085596;28;20218;-68
2021/06/21 05:28:19;;;;;;;4.60;1.15;;;;;;;11.55;59.08;100847.09;5084330;28;20046;-68
2021/06/21 05:30:45;;;;;;;8.00;1.30;;;;;;;11.54;58.98;100839.34;5065330;28;20078;-68
2021/06/21 05:33:10;;;;;;;6.60;1.38;;;;;;;11.34;59.92;100835.81;5064224;28;20031;-69
2021/06/21 05:35:36;;;;;;;9.07;1.67;;;;;;;11.77;58.21;100839.16;5064647;28;20027;-68
2021/06/21 05:38:01;;;;;;;7.50;1.13;;;;;;;11.55;59.01;100835.78;5066555;28;20893;-68
2021/06/21 05:40:27;;;;;;;3.95;1.13;;;;;;;11.53;59.16;100846.34;5083282;28;20081;-71
2021/06/21 05:42:53;;;;;;;4.57;1.10;;;;;;;11.43;59.87;100848.50;5065356;28;20032;-68
2021/06/21 05:45:18;;;;;;;5.05;0.88;;;;;;;11.54;59.50;100844.56;5065057;28;20035;-68
2021/06/21 05:47:44;;;;;;;6.78;0.85;;;;;;;11.40;60.19;100843.41;5085246;28;20068;-68
2021/06/21 05:50:11;;;;;;;4.63;1.25;;;;;;;11.72;58.58;100850.75;5066097;28;20036;-68
2021/06/21 05:52:36;;;;;;;5.53;1.80;;;;;;;11.61;58.65;100840.75;5065323;28;20028;-68
2021/06/21 05:55:03;;;;;;;8.80;1.25;;;;;;;11.44;59.64;100839.75;5085370;28;20050;-69
2021/06/21 05:57:29;;;;;;;2.80;1.25;;;;;;;11.64;59.37;100835.38;5066934;28;20038;-68
2021/06/21 05:59:55;;;;;;;8.35;1.85;;;;;;;11.97;57.63;100843.47;5068103;28;20363;-68
2021/06/21 06:02:21;;;;;;;6.97;1.40;;;;;;;11.78;58.47;100853.97;5085477;28;20616;-68
2021/06/21 06:04:46;;;;;;;4.88;1.20;;;;;;;11.62;58.86;100853.78;5077443;28;20105;-68
2021/06/21 06:07:12;;;;;;;4.63;1.20;;;;;;;11.61;59.50;100840.75;5086322;28;20032;-68
2021/06/21 06:09:37;;;;;;;6.15;1.75;;;;;;;11.63;59.43;100845.00;5067501;28;20031;-68
2021/06/21 06:12:03;;;;;;;6.75;1.70;;;;;;;11.80;58.77;100831.19;5065884;28;20035;-68
2021/06/21 06:14:30;;;;;;;11.02;1.67;;;;;;;11.81;59.13;100834.66;5084929;28;20028;-68
2021/06/21 06:16:56;;;;;;;4.97;1.38;;;;;;;11.97;58.94;100840.88;5067419;28;20028;-68
2021/06/21 06:19:22;;;;;;;8.95;1.80;;;;;;;12.16;58.26;100838.25;5048747;28;20121;-68
2021/06/21 06:21:48;;;;;;;9.98;1.42;;;;;;;11.98;59.34;100831.25;5063296;28;20028;-68
2021/06/21 06:24:14;;;;;;;11.10;1.33;;;;;;;11.94;58.89;100834.94;5063574;28;20671;-69
2021/06/21 06:26:44;;;;;;;10.27;1.33;;;;;;;11.59;59.85;100834.75;5065163;28;20036;-69
2021/06/21 06:29:14;;;;;;;11.98;1.88;;;;;;;11.55;60.18;100828.78;5048715;28;20040;-69
2021/06/21 06:31:41;;;;;;;3.45;1.27;;;;;;;11.67;59.38;100825.63;5047457;28;20024;-68
2021/06/21 06:34:07;;;;;;;9.48;3.42;;;;;;;11.75;59.22;100834.88;5077254;28;20035;-69
2021/06/21 06:36:33;;;;;;;9.05;2.40;;;;;;;11.46;60.02;100832.69;5060895;28;20032;-69
2021/06/21 06:38:59;;;;;;;6.22;1.90;;;;;;;11.45;60.28;100837.97;5061200;28;20096;-68
2021/06/21 06:41:24;;;;;;;10.63;2.38;;;;;;;11.75;59.28;100843.59;5060149;28;20034;-69
2021/06/21 06:43:53;;;;;;;6.38;1.83;;;;;;;11.88;59.41;100852.63;5044086;28;20124;-69
2021/06/21 06:46:19;;;;;;;10.70;1.60;;;;;;;11.84;58.89;100844.97;5076922;28;20036;-68
2021/06/21 06:48:44;;;;;;;7.95;2.05;;;;;;;11.62;60.05;100850.28;5079423;28;20553;-68
2021/06/21 06:51:10;;;;;;;6.93;1.55;;;;;;;11.53;60.13;100848.97;5060711;28;20540;-68
2021/06/21 06:53:52;;;;;;;16.45;2.38;;;;;;;11.77;59.40;100849.63;5061667;28;20123;-68
2021/06/21 06:59:03;;;;;;;8.73;2.40;;;;;;;11.87;59.43;100853.56;5062023;28;20073;-69
2021/06/21 07:01:29;;;;;;;12.52;1.83;;;;;;;11.71;59.80;100857.75;5078200;28;20059;-69
2021/06/21 07:03:55;;;;;;;7.10;1.00;;;;;;;12.00;58.97;100858.22;5060288;28;20071;-68
2021/06/21 07:06:20;;;;;;;11.88;1.33;;;;;;;11.79;59.31;100855.66;5045050;28;20047;-68
2021/06/21 07:08:46;;;;;;;11.23;1.20;;;;;;;12.01;59.17;100855.53;5077128;28;20037;-68
2021/06/21 07:11:13;;;;;;;8.35;1.17;;;;;;;11.71;60.13;100857.75;5078809;28;20111;-68
2021/06/21 07:13:40;;;;;;;7.03;1.92;;;;;;;12.12;58.88;100862.91;5054335;28;20111;-70
2021/06/21 07:16:05;;;;;;;2.53;1.30;;;;;;;12.27;58.15;100864.78;5044743;28;20135;-68
2021/06/21 07:18:31;;;;;;;7.38;1.30;;;;;;;12.12;58.77;100857.66;5060639;28;20999;-70
2021/06/21 07:20:56;;;;;;;3.63;0.50;;;;;;;11.62;60.08;100856.41;5057606;28;20028;-70
2021/06/21 07:23:22;;;;;;;7.00;1.17;;;;;;;11.73;60.17;100853.31;5062826;28;20044;-68
2021/06/21 07:25:48;;;;;;;6.20;2.00;;;;;;;11.76;60.57;100849.69;5076054;28;20036;-68
2021/06/21 07:28:16;;;;;;;7.63;1.23;;;;;;;11.96;59.46;100854.06;5061005;28;20669;-68
2021/06/21 07:30:44;;;;;;;11.63;1.27;;;;;;;11.93;59.90;100857.63;5060105;28;20032;-68
2021/06/21 07:33:11;;;;;;;3.95;1.30;;;;;;;11.90;60.27;100856.94;5060266;28;20115;-68
2021/06/21 07:35:40;;;;;;;7.88;1.38;;;;;;;11.89;60.28;100866.59;5058800;28;20032;-68
2021/06/21 07:38:07;;;;;;;4.10;0.80;;;;;;;12.25;58.88;100858.78;5076113;28;20044;-68
2021/06/21 07:40:33;;;;;;;5.57;1.10;;;;;;;11.68;60.50;100857.88;5058519;28;20036;-69
2021/06/21 07:42:58;;;;;;;3.80;1.02;;;;;;;12.11;59.72;100855.97;5079443;28;20472;-68
2021/06/21 07:45:24;;;;;;;8.45;2.22;;;;;;;12.23;59.03;100859.78;5063279;28;20044;-68
2021/06/21 07:47:52;;;;;;;9.93;2.05;;;;;;;12.12;59.26;100860.28;5078660;28;20142;-68
2021/06/21 07:50:18;;;;;;;4.53;0.90;;;;;;;11.85;61.13;100851.94;5052844;28;20047;-68
2021/06/21 07:52:44;;;;;;;4.65;1.38;;;;;;;12.24;59.52;100857.06;5061742;28;20032;-68
2021/06/21 07:55:09;;;;;;;11.48;1.60;;;;;;;12.20;59.50;100849.41;5061705;28;20036;-68
2021/06/21 07:57:35;;;;;;;9.52;1.55;;;;;;;12.55;59.41;100850.34;5062169;28;20031;-69
2021/06/21 08:00:00;;;;;;;8.05;1.52;;;;;;;12.51;59.27;100859.28;5045921;28;20036;-68
2021/06/21 08:02:26;;;;;;;7.07;1.17;;;;;;;12.26;59.65;100849.97;5062460;28;20119;-68
2021/06/21 08:04:51;;;;;;;9.70;1.95;;;;;;;12.16;59.83;100859.22;5079818;28;20118;-69
2021/06/21 08:07:17;;;;;;;7.20;1.08;;;;;;;12.51;58.70;100859.28;5062533;28;20054;-69
2021/06/21 08:09:43;;;;;;;7.50;1.73;;;;;;;12.59;59.02;100853.69;5080239;28;20044;-69
2021/06/21 08:12:09;;;;;;;10.05;2.03;;;;;;;12.37;59.44;100856.50;5062034;28;20032;-68
2021/06/21 08:14:35;;;;;;;9.68;2.17;;;;;;;12.84;58.24;100850.72;5045088;28;20036;-69
2021/06/21 08:17:01;;;;;;;12.50;1.60;;;;;;;12.60;59.12;100858.00;5062165;28;20042;-68
2021/06/21 08:19:27;;;;;;;6.18;1.10;;;;;;;13.17;57.58;100855.22;5044421;28;20066;-68
2021/06/21 08:21:52;;;;;;;5.07;1.05;;;;;;;12.74;57.79;100841.63;5061763;28;20135;-68
2021/06/21 08:24:18;;;;;;;4.85;0.90;;;;;;;12.29;59.36;100849.84;5079127;28;20997;-68
2021/06/21 08:26:44;;;;;;;4.15;0.68;;;;;;;12.45;58.75;100851.75;5060126;28;20032;-69
2021/06/21 08:29:09;;;;;;;5.00;0.60;;;;;;;12.50;58.38;100847.13;5061964;28;20043;-69
2021/06/21 08:31:35;;;;;;;8.57;1.08;;;;;;;12.06;58.27;100848.28;5061492;28;20404;-68
2021/06/21 08:34:01;;;;;;;7.28;1.55;;;;;;;11.82;59.08;100837.22;5062169;28;20043;-69
2021/06/21 08:36:26;;;;;;;6.32;1.27;;;;;;;12.16;58.54;100848.72;5062911;28;20043;-68
2021/06/21 08:38:52;;;;;;;4.13;0.60;;;;;;;11.75;59.73;100846.19;5063579;28;20107;-69
2021/06/21 08:41:20;;;;;;;5.15;0.50;;;;;;;11.87;59.62;100850.09;5061541;28;20028;-69
2021/06/21 08:43:47;;;;;;;4.97;0.80;;;;;;;11.98;59.69;100857.47;5045386;28;20036;-69
2021/06/21 08:46:15;;;;;;;5.38;0.90;;;;;;;11.82;59.96;100855.53;5079916;28;20036;-69
2021/06/21 08:48:44;;;;;;;28.73;1.35;;;;;;;12.22;58.74;100856.31;5080418;28;20036;-68
2021/06/21 08:51:12;;;;;;;7.75;1.45;;;;;;;11.85;60.42;100859.78;5061403;28;20043;-69
2021/06/21 08:53:37;;;;;;;4.40;1.13;;;;;;;11.98;60.03;100866.16;5078307;28;20035;-68
2021/06/21 08:56:03;;;;;;;8.80;1.70;;;;;;;12.63;58.41;100858.72;5045157;28;20492;-68
2021/06/21 08:58:28;;;;;;;9.27;1.75;;;;;;;12.36;59.26;100857.44;5061176;28;20036;-69
2021/06/21 09:00:54;;;;;;;12.10;0.73;;;;;;;12.52;59.11;100853.13;5044848;28;20064;-68
2021/06/21 09:03:19;;;;;;;6.28;0.85;;;;;;;12.39;59.22;100845.00;5061286;28;20042;-68
2021/06/21 09:05:45;;;;;;;6.95;1.52;;;;;;;12.51;58.96;100843.56;5044699;28;20100;-68
2021/06/21 09:08:11;;;;;;;6.30;1.58;;;;;;;12.25;59.17;100850.91;5043908;28;20043;-68
2021/06/21 09:10:40;;;;;;;10.15;1.83;;;;;;;12.44;59.08;100842.16;5061379;28;20057;-68
2021/06/21 09:13:11;;;;;;;6.65;2.03;;;;;;;12.87;58.15;100848.81;5077313;28;20128;-69
2021/06/21 09:15:41;;;;;;;8.10;1.70;;;;;;;12.73;58.22;100850.41;5043961;28;20036;-68
2021/06/21 09:18:36;;;;;;;5.57;1.88;;;;;;;12.34;59.55;100848.78;5076690;28;20289;-67
2021/06/21 09:21:26;;;;;;;10.35;1.77;;;;;;;12.73;58.55;100853.03;5075037;28;20575;-68
2021/06/21 09:23:55;;;;;;;9.38;1.52;;;;;;;12.69;58.42;100847.94;5034503;28;20509;-67
2021/06/21 09:26:32;;;;;;;9.23;2.13;;;;;;;12.37;58.64;100852.09;5066157;28;20035;-68
2021/06/21 09:28:59;;;;;;;9.43;1.90;;;;;;;12.11;59.64;100857.72;5078242;28;20066;-69
2021/06/21 09:31:26;;;;;;;5.80;1.98;;;;;;;12.20;59.31;100850.28;5059779;28;20028;-68
2021/06/21 09:33:53;;;;;;;10.27;2.03;;;;;;;12.37;58.92;100854.72;5060133;28;20388;-69
2021/06/21 09:36:30;;;;;;;6.40;1.52;;;;;;;12.42;59.47;100859.72;5043956;28;20036;-69
2021/06/21 09:39:16;;;;;;;3.95;1.20;;;;;;;12.68;58.60;100850.59;5078335;28;21074;-67
2021/06/21 09:41:42;;;;;;;5.05;1.50;;;;;;;12.24;59.19;100851.81;5059441;28;20397;-67
2021/06/21 09:44:07;;;;;;;5.80;1.50;;;;;;;12.35;59.05;100847.84;5077646;28;20044;-70
2021/06/21 09:46:33;;;;;;;10.15;1.40;;;;;;;12.16;59.68;100846.13;5056422;28;20032;-67
2021/06/21 09:48:58;;;;;;;4.38;1.60;;;;;;;12.78;57.72;100851.91;5061539;28;20044;-67
2021/06/21 09:51:27;;;;;;;8.88;1.10;;;;;;;12.67;57.85;100849.75;5058308;28;20020;-67
2021/06/21 09:54:00;;;;;;;3.72;1.35;;;;;;;12.85;56.92;100849.81;5058583;28;20118;-67
2021/06/21 09:56:41;;;;;;;8.88;1.30;;;;;;;12.33;57.99;100847.91;5043806;28;20130;-68
2021/06/21 09:59:23;;;;;;;5.63;1.15;;;;;;;12.62;57.87;100840.41;5067461;28;20534;-68
2021/06/21 10:02:10;;;;;;;5.47;0.93;;;;;;;12.77;57.28;100838.84;5060155;28;20027;-67
2021/06/21 10:04:38;;;;;;;1.90;0.60;;;;;;;13.08;57.73;100839.00;5068588;28;20060;-68
2021/06/21 10:07:05;;;;;;;2.90;1.42;;;;;;;13.20;56.37;100842.75;5077788;28;20043;-68
2021/06/21 10:09:30;;;;;;;3.05;1.25;;;;;;;13.47;56.16;100844.88;5060688;28;20039;-68
2021/06/21 10:11:57;;;;;;;6.63;1.25;;;;;;;13.11;57.36;100840.59;5058561;28;20027;-68
2021/06/21 10:14:27;;;;;;;5.93;1.02;;;;;;;13.58;55.54;100839.94;5058571;28;20027;-68
2021/06/21 10:16:53;;;;;;;7.13;0.88;;;;;;;13.25;57.08;100853.00;5075700;28;20032;-68
2021/06/21 10:19:20;;;;;;;10.32;0.70;;;;;;;13.34;56.37;100855.19;5077655;28;21020;-68
2021/06/21 10:21:49;;;;;;;5.55;1.25;;;;;;;12.96;57.06;100855.38;5058332;28;20097;-68
2021/06/21 10:24:15;;;;;;;5.75;1.67;;;;;;;12.76;57.94;100853.75;5059072;28;20105;-68
2021/06/21 10:26:49;;;;;;;7.72;1.75;;;;;;;12.88;57.55;100862.78;5055229;28;20036;-68
2021/06/21 10:29:15;;;;;;;1.98;0.65;;;;;;;12.61;57.83;100867.56;5059652;28;20040;-68
2021/06/21 10:31:42;;;;;;;6.70;1.20;;;;;;;12.54;57.73;100874.88;5075191;28;20035;-67
2021/06/21 10:34:08;;;;;;;3.85;0.77;;;;;;;11.85;58.92;100875.50;5076311;28;20070;-68
2021/06/21 10:36:44;;;;;;;7.97;3.50;;;;;;;11.88;59.04;100885.81;5043874;28;20105;-68
2021/06/21 10:39:19;;;;;;;2.10;0.47;;;;;;;11.67;60.08;100885.00;5044246;28;20043;-68
2021/06/21 10:42:04;;;;;;;3.13;0.68;;;;;;;11.97;59.43;100890.63;5057427;28;20024;-67
2021/06/21 10:44:40;;;;;;;2.50;0.95;;;;;;;11.99;59.91;100893.19;5044778;28;20068;-68
2021/06/21 10:47:41;;;;;;;3.88;1.45;;;;;;;12.03;59.21;100890.34;5059240;28;20040;-68
2021/06/21 10:50:16;;;;;;;4.28;1.55;;;;;;;11.77;60.30;100898.50;5058805;28;20036;-68
2021/06/21 10:52:51;;;;;;;5.57;0.73;;;;;;;12.25;58.62;100900.69;5041226;28;20093;-68
2021/06/21 10:55:38;;;;;;;2.55;0.70;;;;;;;11.83;59.17;100896.50;5057594;28;20040;-68
2021/06/21 10:58:23;;;;;;;4.50;0.60;;;;;;;12.28;57.76;100890.06;5058679;28;20163;-68
2021/06/21 11:00:50;;;;;;;3.60;0.68;;;;;;;12.22;58.70;100890.38;5058331;28;20040;-68
2021/06/21 11:03:33;;;;;;;4.32;0.77;;;;;;;12.43;57.73;100892.91;5058262;28;20040;-68
2021/06/21 11:06:08;;;;;;;8.07;2.35;;;;;;;12.31;57.90;100893.47;5057479;28;20452;-68
2021/06/21 11:08:34;;;;;;;11.82;2.03;;;;;;;12.28;58.56;100887.44;5059512;28;20036;-68
2021/06/21 11:10:59;;;;;;;6.82;0.60;;;;;;;12.37;58.36;100898.44;5066182;28;20036;-71
2021/06/21 11:13:28;;;;;;;2.22;0.57;;;;;;;12.64;56.99;100897.09;5058838;28;20504;-68
2021/06/21 11:16:21;;;;;;;5.82;0.90;;;;;;;12.63;56.66;100900.66;5058203;28;20042;-69
2021/06/21 11:19:21;;;;;;;4.68;1.15;;;;;;;13.04;56.32;100900.41;5055288;28;20091;-68
2021/06/21 11:21:54;;;;;;;6.35;0.98;;;;;;;12.76;57.09;100900.94;5036485;28;20040;-69
2021/06/21 11:24:35;;;;;;;1.65;0.60;;;;;;;13.12;56.54;100905.31;5076559;28;20032;-68
2021/06/21 11:27:04;;;;;;;3.30;0.90;;;;;;;13.43;55.92;100909.84;5054586;28;20078;-69
2021/06/21 11:29:30;;;;;;;6.68;1.08;;;;;;;13.53;54.89;100913.66;5049717;28;20465;-69
2021/06/21 11:32:00;;;;;;;4.82;1.48;;;;;;;12.96;57.02;100913.09;5079728;28;20036;-68
2021/06/21 11:34:49;;;;;;;4.25;0.73;;;;;;;13.23;55.31;100916.09;5061969;28;20032;-69